ADDS METAR Data INFO
IDs: Format: Raw Decoded Include TAF

Data at: 2330 UTC 19 Oct 2017

KDTO 192253Z 12009KT 10SM CLR 25/11 A3006 RMK AO2 SLP172 T02500111
KDTO 192153Z 12010KT 10SM CLR 27/12 A3006 RMK AO2 SLP174 T02670117
KDTO 192053Z 13011KT 10SM CLR 27/11 A3007 RMK AO2 SLP175 T02720111 56028
KDTO 191953Z 13007KT 10SM CLR 27/12 A3009 RMK AO2 SLP182 T02670122
KDTO 191853Z 14007KT 9SM CLR 26/13 A3012 RMK AO2 SLP192 T02610128
KDTO 191753Z 16010KT 9SM CLR 25/13 A3015 RMK AO2 SLP204 T02500128 10250 20117 58009
KDTO 191653Z 18007G16KT 9SM CLR 24/14 A3017 RMK AO2 SLP212 T02390144
KDTO 191553Z 17007KT 7SM CLR 21/15 A3018 RMK AO2 SLP214 T02110150
KDTO 191453Z 17003KT 10SM CLR 17/14 A3018 RMK AO2 SLP215 T01720144 53015
KDTO 191353Z 14003KT 10SM CLR 13/12 A3016 RMK AO2 SLP209 T01330122
KDTO 191253Z 11003KT 10SM CLR 12/09 A3015 RMK AO2 SLP204 T01220094
KDTO 191153Z 12003KT 10SM CLR 12/09 A3014 RMK AO2 SLP201 T01170089 10161 20106 53010
KDTO 191053Z 14005KT 10SM CLR 14/09 A3012 RMK AO2 SLP193 T01390089
KDTO 190953Z AUTO 00000KT 10SM CLR 11/08 A3011 RMK AO2 SLP189 T01110083
KDTO 190853Z AUTO 14003KT 10SM CLR 13/08 A3011 RMK AO2 SLP188 T01330083 51005
KDTO 190753Z AUTO 00000KT 10SM CLR 13/08 A3011 RMK AO2 SLP188 T01280083
KDTO 190653Z AUTO 15004KT 10SM CLR 16/08 A3011 RMK AO2 SLP188 T01610078
KDTO 190553Z AUTO 16007KT 10SM CLR 14/08 A3009 RMK AO2 SLP183 T01440078 10228 20144 402780067 58001
KDTO 190453Z AUTO 17004KT 10SM CLR 14/08 A3010 RMK AO2 SLP186 T01440083
KDTO 190353Z AUTO 14010KT 10SM CLR 17/08 A3010 RMK AO2 SLP187 T01720078
KDTO 190253Z 14006KT 10SM CLR 16/08 A3009 RMK AO2 SLP186 T01610078 51010
KDTO 190153Z 13005KT 10SM CLR 18/07 A3009 RMK AO2 SLP185 T01830072
KDTO 190053Z 13005KT 10SM CLR 21/07 A3007 RMK AO2 SLP179 T02060067
KDTO 182353Z 15007KT 10SM CLR 23/06 A3006 RMK AO2 SLP175 T02280061 10278 20228 53001
KDTO 182253Z 15014KT 10SM CLR 27/06 A3005 RMK AO2 SLP171 T02670061
KDTO 182153Z 16012KT 10SM CLR 27/06 A3005 RMK AO2 SLP171 T02720061
KDTO 182053Z 16015KT 10SM CLR 27/08 A3006 RMK AO2 SLP174 T02720078 56027
KDTO 181953Z AUTO 16010KT 10SM CLR 27/08 A3007 RMK AO2 SLP178 T02670078
KDTO 181853Z 15011KT 10SM CLR 26/08 A3011 RMK AO2 SLP191 T02560078
KDTO 181753Z 17008KT 10SM CLR 25/08 A3014 RMK AO2 SLP202 T02500078 10250 20067 58008
KDTO 181653Z 18012KT 10SM CLR 23/08 A3015 RMK AO2 SLP206 T02330083
KDTO 181553Z 20012KT 10SM CLR 21/08 A3016 RMK AO2 SLP209 T02110078
KDTO 181453Z 18011KT 10SM CLR 18/09 A3017 RMK AO2 SLP210 T01780089 53009
KDTO 181353Z 15006KT 10SM CLR 11/09 A3016 RMK AO2 SLP208 T01110089
KDTO 181253Z 13008KT 10SM CLR 10/07 A3014 RMK AO2 SLP203 T01000072
KDTO 181153Z 00000KT 10SM CLR 09/07 A3014 RMK AO2 SLP202 T00890067 10117 20078 53003